sensor_id;sensor_type;location;lat;lon;timestamp;temperature;humidity
5962;DHT22;3007;50.770;0.250;2023-08-06T00:01:59;13.10;99.90
5962;DHT22;3007;50.770;0.250;2023-08-06T00:04:25;13.10;99.90
5962;DHT22;3007;50.770;0.250;2023-08-06T00:06:53;13.10;99.90
5962;DHT22;3007;50.770;0.250;2023-08-06T00:09:20;13.10;99.90
5962;DHT22;3007;50.770;0.250;2023-08-06T00:11:47;13.10;99.90
5962;DHT22;3007;50.770;0.250;2023-08-06T00:14:15;13.10;99.90
5962;DHT22;3007;50.770;0.250;2023-08-06T00:16:43;13.10;99.90
5962;DHT22;3007;50.770;0.250;2023-08-06T00:19:11;13.20;99.90
5962;DHT22;3007;50.770;0.250;2023-08-06T00:21:38;13.30;99.90
5962;DHT22;3007;50.770;0.250;2023-08-06T00:24:05;13.40;99.90
5962;DHT22;3007;50.770;0.250;2023-08-06T00:26:32;13.40;99.90
5962;DHT22;3007;50.770;0.250;2023-08-06T00:28:59;13.50;99.90
5962;DHT22;3007;50.770;0.250;2023-08-06T00:31:27;13.50;99.90
5962;DHT22;3007;50.770;0.250;2023-08-06T00:33:54;13.60;99.90
5962;DHT22;3007;50.770;0.250;2023-08-06T00:36:22;13.60;99.90
5962;DHT22;3007;50.770;0.250;2023-08-06T00:38:49;13.70;99.90
5962;DHT22;3007;50.770;0.250;2023-08-06T00:41:15;13.70;99.90
5962;DHT22;3007;50.770;0.250;2023-08-06T00:43:42;13.80;99.90
5962;DHT22;3007;50.770;0.250;2023-08-06T00:46:10;13.80;99.90
5962;DHT22;3007;50.770;0.250;2023-08-06T00:48:38;13.80;99.90
5962;DHT22;3007;50.770;0.250;2023-08-06T00:51:06;13.80;99.90
5962;DHT22;3007;50.770;0.250;2023-08-06T00:53:34;13.80;99.90
5962;DHT22;3007;50.770;0.250;2023-08-06T00:56:02;13.90;99.90
5962;DHT22;3007;50.770;0.250;2023-08-06T00:58:29;13.90;99.90
5962;DHT22;3007;50.770;0.250;2023-08-06T01:00:56;13.90;99.90
5962;DHT22;3007;50.770;0.250;2023-08-06T01:03:23;13.90;99.90
5962;DHT22;3007;50.770;0.250;2023-08-06T01:05:52;13.90;99.90
5962;DHT22;3007;50.770;0.250;2023-08-06T01:08:28;13.90;99.90
5962;DHT22;3007;50.770;0.250;2023-08-06T01:11:05;13.90;99.90
5962;DHT22;3007;50.770;0.250;2023-08-06T01:13:41;13.90;99.90
5962;DHT22;3007;50.770;0.250;2023-08-06T01:16:10;13.90;99.90
5962;DHT22;3007;50.770;0.250;2023-08-06T01:18:38;13.90;99.90
5962;DHT22;3007;50.770;0.250;2023-08-06T01:21:09;13.90;99.90
5962;DHT22;3007;50.770;0.250;2023-08-06T01:23:36;13.80;99.90
5962;DHT22;3007;50.770;0.250;2023-08-06T01:26:08;13.90;99.90
5962;DHT22;3007;50.770;0.250;2023-08-06T01:28:42;13.90;99.90
5962;DHT22;3007;50.770;0.250;2023-08-06T01:31:15;13.90;99.90
5962;DHT22;3007;50.770;0.250;2023-08-06T01:33:45;13.90;99.90
5962;DHT22;3007;50.770;0.250;2023-08-06T01:36:15;13.90;99.90
5962;DHT22;3007;50.770;0.250;2023-08-06T01:38:43;13.80;99.90
5962;DHT22;3007;50.770;0.250;2023-08-06T01:41:10;13.90;99.90
5962;DHT22;3007;50.770;0.250;2023-08-06T01:43:37;13.90;99.90
5962;DHT22;3007;50.770;0.250;2023-08-06T01:46:04;13.80;99.90
5962;DHT22;3007;50.770;0.250;2023-08-06T01:48:31;13.80;99.90
5962;DHT22;3007;50.770;0.250;2023-08-06T01:50:58;13.80;99.90
5962;DHT22;3007;50.770;0.250;2023-08-06T01:53:26;13.80;99.90
5962;DHT22;3007;50.770;0.250;2023-08-06T01:55:53;13.80;99.90
5962;DHT22;3007;50.770;0.250;2023-08-06T01:58:20;13.80;99.90
5962;DHT22;3007;50.770;0.250;2023-08-06T02:00:47;13.80;99.90
5962;DHT22;3007;50.770;0.250;2023-08-06T02:03:14;13.80;99.90
5962;DHT22;3007;50.770;0.250;2023-08-06T02:05:41;13.80;99.90
5962;DHT22;3007;50.770;0.250;2023-08-06T02:08:08;13.70;99.90
5962;DHT22;3007;50.770;0.250;2023-08-06T02:10:36;13.70;99.90
5962;DHT22;3007;50.770;0.250;2023-08-06T02:13:03;13.60;99.90
5962;DHT22;3007;50.770;0.250;2023-08-06T02:15:30;13.50;99.90
5962;DHT22;3007;50.770;0.250;2023-08-06T02:17:58;13.40;99.90
5962;DHT22;3007;50.770;0.250;2023-08-06T02:20:25;13.30;99.90
5962;DHT22;3007;50.770;0.250;2023-08-06T02:22:52;13.10;99.90
5962;DHT22;3007;50.770;0.250;2023-08-06T02:25:19;13.00;99.90
5962;DHT22;3007;50.770;0.250;2023-08-06T02:27:47;12.90;99.90
5962;DHT22;3007;50.770;0.250;2023-08-06T02:30:14;12.80;99.90
5962;DHT22;3007;50.770;0.250;2023-08-06T02:32:41;12.70;99.90
5962;DHT22;3007;50.770;0.250;2023-08-06T02:35:08;12.70;99.90
5962;DHT22;3007;50.770;0.250;2023-08-06T02:37:35;12.60;99.90
5962;DHT22;3007;50.770;0.250;2023-08-06T02:40:03;12.50;99.90
5962;DHT22;3007;50.770;0.250;2023-08-06T02:42:30;12.50;99.90
5962;DHT22;3007;50.770;0.250;2023-08-06T02:44:58;12.40;99.90
5962;DHT22;3007;50.770;0.250;2023-08-06T02:47:25;12.40;99.90
5962;DHT22;3007;50.770;0.250;2023-08-06T02:49:53;12.40;99.90
5962;DHT22;3007;50.770;0.250;2023-08-06T02:52:20;12.30;99.90
5962;DHT22;3007;50.770;0.250;2023-08-06T02:54:47;12.20;99.90
5962;DHT22;3007;50.770;0.250;2023-08-06T02:57:13;12.20;99.90
5962;DHT22;3007;50.770;0.250;2023-08-06T02:59:41;12.20;99.90
5962;DHT22;3007;50.770;0.250;2023-08-06T03:02:09;12.10;99.90
5962;DHT22;3007;50.770;0.250;2023-08-06T03:04:36;12.10;99.90
5962;DHT22;3007;50.770;0.250;2023-08-06T03:07:03;12.10;99.90
5962;DHT22;3007;50.770;0.250;2023-08-06T03:09:30;12.10;99.90
5962;DHT22;3007;50.770;0.250;2023-08-06T03:11:57;12.00;99.90
5962;DHT22;3007;50.770;0.250;2023-08-06T03:14:24;11.90;99.90
5962;DHT22;3007;50.770;0.250;2023-08-06T03:16:51;12.00;99.90
5962;DHT22;3007;50.770;0.250;2023-08-06T03:19:19;11.90;99.90
5962;DHT22;3007;50.770;0.250;2023-08-06T03:21:46;11.90;99.90
5962;DHT22;3007;50.770;0.250;2023-08-06T03:24:14;11.90;99.90
5962;DHT22;3007;50.770;0.250;2023-08-06T03:26:41;11.80;99.90
5962;DHT22;3007;50.770;0.250;2023-08-06T03:29:08;11.80;99.90
5962;DHT22;3007;50.770;0.250;2023-08-06T03:31:35;11.80;99.90
5962;DHT22;3007;50.770;0.250;2023-08-06T03:34:03;11.70;99.90
5962;DHT22;3007;50.770;0.250;2023-08-06T03:36:31;11.70;99.90
5962;DHT22;3007;50.770;0.250;2023-08-06T03:38:58;11.70;99.90
5962;DHT22;3007;50.770;0.250;2023-08-06T03:41:25;11.70;99.90
5962;DHT22;3007;50.770;0.250;2023-08-06T03:43:52;11.70;99.90
5962;DHT22;3007;50.770;0.250;2023-08-06T03:46:19;11.60;99.90
5962;DHT22;3007;50.770;0.250;2023-08-06T03:48:45;11.60;99.90
5962;DHT22;3007;50.770;0.250;2023-08-06T03:51:12;11.60;99.90
5962;DHT22;3007;50.770;0.250;2023-08-06T03:53:40;11.60;99.90
5962;DHT22;3007;50.770;0.250;2023-08-06T03:56:08;11.60;99.90
5962;DHT22;3007;50.770;0.250;2023-08-06T03:58:35;11.50;99.90
5962;DHT22;3007;50.770;0.250;2023-08-06T04:01:02;11.40;99.90
5962;DHT22;3007;50.770;0.250;2023-08-06T04:03:29;11.40;99.90
5962;DHT22;3007;50.770;0.250;2023-08-06T04:05:56;11.40;99.90
5962;DHT22;3007;50.770;0.250;2023-08-06T04:08:23;11.30;99.90
5962;DHT22;3007;50.770;0.250;2023-08-06T04:10:52;11.30;99.90
5962;DHT22;3007;50.770;0.250;2023-08-06T04:13:19;11.30;99.90
5962;DHT22;3007;50.770;0.250;2023-08-06T04:15:47;11.30;99.90
5962;DHT22;3007;50.770;0.250;2023-08-06T04:18:14;11.30;99.90
5962;DHT22;3007;50.770;0.250;2023-08-06T04:20:44;11.30;99.90
5962;DHT22;3007;50.770;0.250;2023-08-06T04:23:11;11.30;99.90
5962;DHT22;3007;50.770;0.250;2023-08-06T04:25:38;11.30;99.90
5962;DHT22;3007;50.770;0.250;2023-08-06T04:28:07;11.30;99.90
5962;DHT22;3007;50.770;0.250;2023-08-06T04:30:34;11.20;99.90
5962;DHT22;3007;50.770;0.250;2023-08-06T04:33:01;11.20;99.90
5962;DHT22;3007;50.770;0.250;2023-08-06T04:35:28;11.20;99.90
5962;DHT22;3007;50.770;0.250;2023-08-06T04:37:55;11.20;99.90
5962;DHT22;3007;50.770;0.250;2023-08-06T04:40:22;11.20;99.90
5962;DHT22;3007;50.770;0.250;2023-08-06T04:42:49;11.20;99.90
5962;DHT22;3007;50.770;0.250;2023-08-06T04:45:18;11.20;99.90
5962;DHT22;3007;50.770;0.250;2023-08-06T04:47:46;11.20;99.90
5962;DHT22;3007;50.770;0.250;2023-08-06T04:50:13;11.20;99.90
5962;DHT22;3007;50.770;0.250;2023-08-06T04:52:40;11.20;99.90
5962;DHT22;3007;50.770;0.250;2023-08-06T04:55:07;11.30;99.90
5962;DHT22;3007;50.770;0.250;2023-08-06T04:57:34;11.40;99.90
5962;DHT22;3007;50.770;0.250;2023-08-06T05:00:01;11.40;99.90
5962;DHT22;3007;50.770;0.250;2023-08-06T05:02:31;11.40;99.90
5962;DHT22;3007;50.770;0.250;2023-08-06T05:05:00;11.60;99.90
5962;DHT22;3007;50.770;0.250;2023-08-06T05:07:27;11.80;99.90
5962;DHT22;3007;50.770;0.250;2023-08-06T05:09:54;12.30;99.90
5962;DHT22;3007;50.770;0.250;2023-08-06T05:12:21;12.70;99.90
5962;DHT22;3007;50.770;0.250;2023-08-06T05:14:48;13.30;99.90
5962;DHT22;3007;50.770;0.250;2023-08-06T05:17:15;13.80;99.90
5962;DHT22;3007;50.770;0.250;2023-08-06T05:19:44;14.40;99.90
5962;DHT22;3007;50.770;0.250;2023-08-06T05:22:12;14.80;99.90
5962;DHT22;3007;50.770;0.250;2023-08-06T05:24:39;15.30;99.90
5962;DHT22;3007;50.770;0.250;2023-08-06T05:27:06;15.70;99.90
5962;DHT22;3007;50.770;0.250;2023-08-06T05:29:33;15.90;99.90
5962;DHT22;3007;50.770;0.250;2023-08-06T05:32:00;16.30;99.90
5962;DHT22;3007;50.770;0.250;2023-08-06T05:34:27;16.60;99.90
5962;DHT22;3007;50.770;0.250;2023-08-06T05:36:55;16.90;99.90
5962;DHT22;3007;50.770;0.250;2023-08-06T05:39:22;17.30;99.90
5962;DHT22;3007;50.770;0.250;2023-08-06T05:41:50;17.50;99.90
5962;DHT22;3007;50.770;0.250;2023-08-06T05:44:19;17.70;99.90
5962;DHT22;3007;50.770;0.250;2023-08-06T05:46:47;18.00;99.90
5962;DHT22;3007;50.770;0.250;2023-08-06T05:49:14;18.30;99.90
5962;DHT22;3007;50.770;0.250;2023-08-06T05:51:41;18.50;99.90
5962;DHT22;3007;50.770;0.250;2023-08-06T05:54:09;18.80;99.90
5962;DHT22;3007;50.770;0.250;2023-08-06T05:56:36;19.10;99.90
5962;DHT22;3007;50.770;0.250;2023-08-06T05:59:04;19.30;99.90
5962;DHT22;3007;50.770;0.250;2023-08-06T06:01:31;19.30;99.90
5962;DHT22;3007;50.770;0.250;2023-08-06T06:03:58;19.50;99.90
5962;DHT22;3007;50.770;0.250;2023-08-06T06:06:25;19.60;99.90
5962;DHT22;3007;50.770;0.250;2023-08-06T06:08:52;19.80;99.90
5962;DHT22;3007;50.770;0.250;2023-08-06T06:11:20;19.90;99.90
5962;DHT22;3007;50.770;0.250;2023-08-06T06:13:49;20.10;99.90
5962;DHT22;3007;50.770;0.250;2023-08-06T06:16:16;20.20;99.90
5962;DHT22;3007;50.770;0.250;2023-08-06T06:18:43;20.40;99.90
5962;DHT22;3007;50.770;0.250;2023-08-06T06:21:10;20.50;99.90
5962;DHT22;3007;50.770;0.250;2023-08-06T06:23:38;20.60;99.90
5962;DHT22;3007;50.770;0.250;2023-08-06T06:26:05;20.50;99.90
5962;DHT22;3007;50.770;0.250;2023-08-06T06:28:34;20.00;99.90
5962;DHT22;3007;50.770;0.250;2023-08-06T06:31:01;19.50;99.90
5962;DHT22;3007;50.770;0.250;2023-08-06T06:33:29;19.30;99.90
5962;DHT22;3007;50.770;0.250;2023-08-06T06:35:56;19.10;99.90
5962;DHT22;3007;50.770;0.250;2023-08-06T06:38:23;19.00;99.90
5962;DHT22;3007;50.770;0.250;2023-08-06T06:40:54;18.90;99.90
5962;DHT22;3007;50.770;0.250;2023-08-06T06:43:21;18.90;99.90
5962;DHT22;3007;50.770;0.250;2023-08-06T06:45:52;19.00;99.90
5962;DHT22;3007;50.770;0.250;2023-08-06T06:48:20;19.00;99.90
5962;DHT22;3007;50.770;0.250;2023-08-06T06:50:47;19.00;99.90
5962;DHT22;3007;50.770;0.250;2023-08-06T06:53:14;19.10;99.90
5962;DHT22;3007;50.770;0.250;2023-08-06T06:55:41;19.10;99.90
5962;DHT22;3007;50.770;0.250;2023-08-06T06:58:08;19.10;99.90
5962;DHT22;3007;50.770;0.250;2023-08-06T07:00:35;19.20;99.90
5962;DHT22;3007;50.770;0.250;2023-08-06T07:03:04;19.40;99.90
5962;DHT22;3007;50.770;0.250;2023-08-06T07:05:31;19.60;99.90
5962;DHT22;3007;50.770;0.250;2023-08-06T07:07:58;19.70;99.90
5962;DHT22;3007;50.770;0.250;2023-08-06T07:10:26;19.40;99.90
5962;DHT22;3007;50.770;0.250;2023-08-06T07:12:53;19.60;99.90
5962;DHT22;3007;50.770;0.250;2023-08-06T07:15:20;20.20;99.90
5962;DHT22;3007;50.770;0.250;2023-08-06T07:17:47;20.70;99.90
5962;DHT22;3007;50.770;0.250;2023-08-06T07:20:15;21.10;99.90
5962;DHT22;3007;50.770;0.250;2023-08-06T07:22:43;21.40;99.90
5962;DHT22;3007;50.770;0.250;2023-08-06T07:25:10;21.60;99.90
5962;DHT22;3007;50.770;0.250;2023-08-06T07:27:37;21.80;99.90
5962;DHT22;3007;50.770;0.250;2023-08-06T07:30:06;21.90;99.90
5962;DHT22;3007;50.770;0.250;2023-08-06T07:32:33;22.20;99.90
5962;DHT22;3007;50.770;0.250;2023-08-06T07:35:00;22.30;99.90
5962;DHT22;3007;50.770;0.250;2023-08-06T07:37:30;22.10;99.90
5962;DHT22;3007;50.770;0.250;2023-08-06T07:39:57;22.20;99.90
5962;DHT22;3007;50.770;0.250;2023-08-06T07:42:25;22.40;99.90
5962;DHT22;3007;50.770;0.250;2023-08-06T07:44:53;22.40;99.90
5962;DHT22;3007;50.770;0.250;2023-08-06T07:47:21;22.40;99.90
5962;DHT22;3007;50.770;0.250;2023-08-06T07:49:48;22.50;99.90
5962;DHT22;3007;50.770;0.250;2023-08-06T07:52:15;22.50;99.90
5962;DHT22;3007;50.770;0.250;2023-08-06T07:54:44;22.60;99.90
5962;DHT22;3007;50.770;0.250;2023-08-06T07:57:11;22.70;99.90
5962;DHT22;3007;50.770;0.250;2023-08-06T07:59:39;22.70;99.90
5962;DHT22;3007;50.770;0.250;2023-08-06T08:02:06;22.80;99.90
5962;DHT22;3007;50.770;0.250;2023-08-06T08:04:33;22.80;99.90
5962;DHT22;3007;50.770;0.250;2023-08-06T08:07:01;22.90;99.90
5962;DHT22;3007;50.770;0.250;2023-08-06T08:09:29;23.00;99.90
5962;DHT22;3007;50.770;0.250;2023-08-06T08:11:57;23.00;99.90
5962;DHT22;3007;50.770;0.250;2023-08-06T08:14:26;23.00;99.90
5962;DHT22;3007;50.770;0.250;2023-08-06T08:16:54;23.10;99.90
5962;DHT22;3007;50.770;0.250;2023-08-06T08:19:21;23.10;99.90
5962;DHT22;3007;50.770;0.250;2023-08-06T08:21:48;23.20;99.90
5962;DHT22;3007;50.770;0.250;2023-08-06T08:24:15;23.20;99.90
5962;DHT22;3007;50.770;0.250;2023-08-06T08:26:45;23.20;99.90
5962;DHT22;3007;50.770;0.250;2023-08-06T08:29:13;23.10;99.90
5962;DHT22;3007;50.770;0.250;2023-08-06T08:31:40;22.90;99.90
5962;DHT22;3007;50.770;0.250;2023-08-06T08:34:09;22.60;99.90
5962;DHT22;3007;50.770;0.250;2023-08-06T08:36:36;22.30;99.90
5962;DHT22;3007;50.770;0.250;2023-08-06T08:39:03;22.30;99.90
5962;DHT22;3007;50.770;0.250;2023-08-06T08:41:31;22.40;99.90
5962;DHT22;3007;50.770;0.250;2023-08-06T08:43:59;22.30;99.90
5962;DHT22;3007;50.770;0.250;2023-08-06T08:46:29;22.40;99.90
5962;DHT22;3007;50.770;0.250;2023-08-06T08:48:59;22.40;99.90
5962;DHT22;3007;50.770;0.250;2023-08-06T08:51:27;22.40;99.90
5962;DHT22;3007;50.770;0.250;2023-08-06T08:53:55;22.60;99.90
5962;DHT22;3007;50.770;0.250;2023-08-06T08:56:23;22.50;99.90
5962;DHT22;3007;50.770;0.250;2023-08-06T08:58:50;22.60;99.90
5962;DHT22;3007;50.770;0.250;2023-08-06T09:01:19;22.60;99.90
5962;DHT22;3007;50.770;0.250;2023-08-06T09:03:48;22.40;99.90
5962;DHT22;3007;50.770;0.250;2023-08-06T09:06:17;22.00;99.90
5962;DHT22;3007;50.770;0.250;2023-08-06T09:08:50;21.70;99.90
5962;DHT22;3007;50.770;0.250;2023-08-06T09:11:19;21.50;99.90
5962;DHT22;3007;50.770;0.250;2023-08-06T09:13:56;21.30;99.90
5962;DHT22;3007;50.770;0.250;2023-08-06T09:16:23;21.10;99.90
5962;DHT22;3007;50.770;0.250;2023-08-06T09:18:52;20.90;99.90
5962;DHT22;3007;50.770;0.250;2023-08-06T09:21:19;20.70;99.90
5962;DHT22;3007;50.770;0.250;2023-08-06T09:23:47;20.60;99.90
5962;DHT22;3007;50.770;0.250;2023-08-06T09:26:14;20.50;99.90
5962;DHT22;3007;50.770;0.250;2023-08-06T09:28:41;20.30;99.90
5962;DHT22;3007;50.770;0.250;2023-08-06T09:31:10;20.30;99.90
5962;DHT22;3007;50.770;0.250;2023-08-06T09:33:38;20.20;99.90
5962;DHT22;3007;50.770;0.250;2023-08-06T09:36:11;20.10;99.90
5962;DHT22;3007;50.770;0.250;2023-08-06T09:38:39;20.00;99.90
5962;DHT22;3007;50.770;0.250;2023-08-06T09:41:06;19.90;99.90
5962;DHT22;3007;50.770;0.250;2023-08-06T09:43:43;19.90;99.90
5962;DHT22;3007;50.770;0.250;2023-08-06T09:46:14;19.90;99.90
5962;DHT22;3007;50.770;0.250;2023-08-06T09:48:45;19.80;99.90
5962;DHT22;3007;50.770;0.250;2023-08-06T09:51:13;19.80;99.90
5962;DHT22;3007;50.770;0.250;2023-08-06T09:53:42;19.80;99.90
5962;DHT22;3007;50.770;0.250;2023-08-06T09:56:11;19.80;99.90
5962;DHT22;3007;50.770;0.250;2023-08-06T09:58:41;19.80;99.90
5962;DHT22;3007;50.770;0.250;2023-08-06T10:01:11;19.80;99.90
5962;DHT22;3007;50.770;0.250;2023-08-06T10:03:39;19.70;99.90
5962;DHT22;3007;50.770;0.250;2023-08-06T10:06:07;19.70;99.90
5962;DHT22;3007;50.770;0.250;2023-08-06T10:08:36;19.70;99.90
5962;DHT22;3007;50.770;0.250;2023-08-06T10:11:04;19.70;99.90
5962;DHT22;3007;50.770;0.250;2023-08-06T10:13:33;19.60;99.90
5962;DHT22;3007;50.770;0.250;2023-08-06T10:16:01;19.60;99.90
5962;DHT22;3007;50.770;0.250;2023-08-06T10:18:29;19.70;99.90
5962;DHT22;3007;50.770;0.250;2023-08-06T10:20:57;19.60;99.90
5962;DHT22;3007;50.770;0.250;2023-08-06T10:23:33;19.70;99.90
5962;DHT22;3007;50.770;0.250;2023-08-06T10:26:02;19.70;99.90
5962;DHT22;3007;50.770;0.250;2023-08-06T10:28:37;19.70;99.90
5962;DHT22;3007;50.770;0.250;2023-08-06T10:31:04;19.70;99.90
5962;DHT22;3007;50.770;0.250;2023-08-06T10:33:42;19.90;99.90
5962;DHT22;3007;50.770;0.250;2023-08-06T10:36:10;19.90;99.90
5962;DHT22;3007;50.770;0.250;2023-08-06T10:38:44;19.90;99.90
5962;DHT22;3007;50.770;0.250;2023-08-06T10:41:28;20.00;99.90
5962;DHT22;3007;50.770;0.250;2023-08-06T10:44:05;20.00;99.90
5962;DHT22;3007;50.770;0.250;2023-08-06T10:46:36;19.90;99.90
5962;DHT22;3007;50.770;0.250;2023-08-06T10:49:04;19.90;99.90
5962;DHT22;3007;50.770;0.250;2023-08-06T10:51:33;20.00;99.90
5962;DHT22;3007;50.770;0.250;2023-08-06T10:54:00;20.10;99.90
5962;DHT22;3007;50.770;0.250;2023-08-06T10:56:29;20.10;99.90
5962;DHT22;3007;50.770;0.250;2023-08-06T10:58:58;20.20;99.90
5962;DHT22;3007;50.770;0.250;2023-08-06T11:01:28;20.30;99.90
5962;DHT22;3007;50.770;0.250;2023-08-06T11:03:55;20.30;99.90
5962;DHT22;3007;50.770;0.250;2023-08-06T11:06:23;20.20;99.90
5962;DHT22;3007;50.770;0.250;2023-08-06T11:08:53;20.20;99.90
5962;DHT22;3007;50.770;0.250;2023-08-06T11:11:22;20.20;99.90
5962;DHT22;3007;50.770;0.250;2023-08-06T11:13:51;20.10;99.90
5962;DHT22;3007;50.770;0.250;2023-08-06T11:16:21;20.10;99.90
5962;DHT22;3007;50.770;0.250;2023-08-06T11:18:50;20.20;99.90
5962;DHT22;3007;50.770;0.250;2023-08-06T11:21:19;20.40;99.90
5962;DHT22;3007;50.770;0.250;2023-08-06T11:23:46;20.40;99.90
5962;DHT22;3007;50.770;0.250;2023-08-06T11:26:18;20.50;99.90
5962;DHT22;3007;50.770;0.250;2023-08-06T11:28:46;20.60;99.90
5962;DHT22;3007;50.770;0.250;2023-08-06T11:31:20;20.80;99.90
5962;DHT22;3007;50.770;0.250;2023-08-06T11:33:47;20.90;99.90
5962;DHT22;3007;50.770;0.250;2023-08-06T11:36:14;21.00;99.90
5962;DHT22;3007;50.770;0.250;2023-08-06T11:38:41;21.00;99.90
5962;DHT22;3007;50.770;0.250;2023-08-06T11:41:09;21.00;99.90
5962;DHT22;3007;50.770;0.250;2023-08-06T11:43:36;20.90;99.90
5962;DHT22;3007;50.770;0.250;2023-08-06T11:46:03;20.70;99.90
5962;DHT22;3007;50.770;0.250;2023-08-06T11:48:31;20.60;99.90
5962;DHT22;3007;50.770;0.250;2023-08-06T11:50:58;20.60;99.90
5962;DHT22;3007;50.770;0.250;2023-08-06T11:53:27;20.60;99.90
5962;DHT22;3007;50.770;0.250;2023-08-06T11:55:55;20.60;99.90
5962;DHT22;3007;50.770;0.250;2023-08-06T11:58:22;20.70;99.90
5962;DHT22;3007;50.770;0.250;2023-08-06T12:00:50;20.80;99.90
5962;DHT22;3007;50.770;0.250;2023-08-06T12:03:19;20.60;99.90
5962;DHT22;3007;50.770;0.250;2023-08-06T12:05:47;20.60;99.90
5962;DHT22;3007;50.770;0.250;2023-08-06T12:08:14;20.70;99.90
5962;DHT22;3007;50.770;0.250;2023-08-06T12:10:41;20.80;99.90
5962;DHT22;3007;50.770;0.250;2023-08-06T12:13:08;20.90;99.90
5962;DHT22;3007;50.770;0.250;2023-08-06T12:15:35;21.10;99.90
5962;DHT22;3007;50.770;0.250;2023-08-06T12:18:02;21.10;99.90
5962;DHT22;3007;50.770;0.250;2023-08-06T12:20:29;21.20;99.90
5962;DHT22;3007;50.770;0.250;2023-08-06T12:22:58;21.20;99.90
5962;DHT22;3007;50.770;0.250;2023-08-06T12:25:25;21.20;99.90
5962;DHT22;3007;50.770;0.250;2023-08-06T12:27:53;21.10;99.90
5962;DHT22;3007;50.770;0.250;2023-08-06T12:30:20;21.10;99.90
5962;DHT22;3007;50.770;0.250;2023-08-06T12:32:47;21.00;99.90
5962;DHT22;3007;50.770;0.250;2023-08-06T12:35:14;21.00;99.90
5962;DHT22;3007;50.770;0.250;2023-08-06T12:37:41;21.00;99.90
5962;DHT22;3007;50.770;0.250;2023-08-06T12:40:11;21.00;99.90
5962;DHT22;3007;50.770;0.250;2023-08-06T12:42:38;21.10;99.90
5962;DHT22;3007;50.770;0.250;2023-08-06T12:45:06;21.10;99.90
5962;DHT22;3007;50.770;0.250;2023-08-06T12:47:33;21.00;99.90
5962;DHT22;3007;50.770;0.250;2023-08-06T12:50:00;21.00;99.90
5962;DHT22;3007;50.770;0.250;2023-08-06T12:52:27;20.80;99.90
5962;DHT22;3007;50.770;0.250;2023-08-06T12:54:54;20.80;99.90
5962;DHT22;3007;50.770;0.250;2023-08-06T12:57:22;20.70;99.90
5962;DHT22;3007;50.770;0.250;2023-08-06T12:59:49;20.60;99.90
5962;DHT22;3007;50.770;0.250;2023-08-06T13:02:16;20.80;99.90
5962;DHT22;3007;50.770;0.250;2023-08-06T13:04:43;20.90;99.90
5962;DHT22;3007;50.770;0.250;2023-08-06T13:07:11;21.10;99.90
5962;DHT22;3007;50.770;0.250;2023-08-06T13:09:39;21.30;99.90
5962;DHT22;3007;50.770;0.250;2023-08-06T13:12:06;21.50;99.90
5962;DHT22;3007;50.770;0.250;2023-08-06T13:14:35;21.80;99.90
5962;DHT22;3007;50.770;0.250;2023-08-06T13:17:02;21.90;99.90
5962;DHT22;3007;50.770;0.250;2023-08-06T13:19:32;21.90;99.90
5962;DHT22;3007;50.770;0.250;2023-08-06T13:22:03;21.80;99.90
5962;DHT22;3007;50.770;0.250;2023-08-06T13:24:32;21.70;99.90
5962;DHT22;3007;50.770;0.250;2023-08-06T13:27:00;21.60;99.90
5962;DHT22;3007;50.770;0.250;2023-08-06T13:29:27;21.60;99.90
5962;DHT22;3007;50.770;0.250;2023-08-06T13:32:02;21.50;99.90
5962;DHT22;3007;50.770;0.250;2023-08-06T13:34:29;21.50;99.90
5962;DHT22;3007;50.770;0.250;2023-08-06T13:36:56;21.50;99.90
5962;DHT22;3007;50.770;0.250;2023-08-06T13:39:23;21.60;99.90
5962;DHT22;3007;50.770;0.250;2023-08-06T13:41:50;21.60;99.90
5962;DHT22;3007;50.770;0.250;2023-08-06T13:44:17;21.70;99.90
5962;DHT22;3007;50.770;0.250;2023-08-06T13:46:47;21.70;99.90
5962;DHT22;3007;50.770;0.250;2023-08-06T13:49:15;21.60;99.90
5962;DHT22;3007;50.770;0.250;2023-08-06T13:51:42;21.60;99.90
5962;DHT22;3007;50.770;0.250;2023-08-06T13:54:09;21.60;99.90
5962;DHT22;3007;50.770;0.250;2023-08-06T13:56:36;21.70;99.90
5962;DHT22;3007;50.770;0.250;2023-08-06T13:59:09;21.70;99.90
5962;DHT22;3007;50.770;0.250;2023-08-06T14:01:39;21.70;99.90
5962;DHT22;3007;50.770;0.250;2023-08-06T14:04:07;21.70;99.90
5962;DHT22;3007;50.770;0.250;2023-08-06T14:06:35;21.80;99.90
5962;DHT22;3007;50.770;0.250;2023-08-06T14:09:08;21.80;99.90
5962;DHT22;3007;50.770;0.250;2023-08-06T14:11:38;21.80;99.90
5962;DHT22;3007;50.770;0.250;2023-08-06T14:14:06;21.70;99.90
5962;DHT22;3007;50.770;0.250;2023-08-06T14:16:33;21.50;99.90
5962;DHT22;3007;50.770;0.250;2023-08-06T14:19:07;21.30;99.90
5962;DHT22;3007;50.770;0.250;2023-08-06T14:21:35;21.10;99.90
5962;DHT22;3007;50.770;0.250;2023-08-06T14:24:02;20.90;99.90
5962;DHT22;3007;50.770;0.250;2023-08-06T14:26:30;20.80;99.90
5962;DHT22;3007;50.770;0.250;2023-08-06T14:28:57;20.80;99.90
5962;DHT22;3007;50.770;0.250;2023-08-06T14:31:25;20.80;99.90
5962;DHT22;3007;50.770;0.250;2023-08-06T14:33:52;20.90;99.90
5962;DHT22;3007;50.770;0.250;2023-08-06T14:36:20;21.10;99.90
5962;DHT22;3007;50.770;0.250;2023-08-06T14:38:49;21.20;99.90
5962;DHT22;3007;50.770;0.250;2023-08-06T14:41:20;21.30;99.90
5962;DHT22;3007;50.770;0.250;2023-08-06T14:43:47;21.30;99.90
5962;DHT22;3007;50.770;0.250;2023-08-06T14:46:15;21.30;99.90
5962;DHT22;3007;50.770;0.250;2023-08-06T14:48:42;21.40;99.90
5962;DHT22;3007;50.770;0.250;2023-08-06T14:51:09;21.40;99.90
5962;DHT22;3007;50.770;0.250;2023-08-06T14:53:36;21.50;99.90
5962;DHT22;3007;50.770;0.250;2023-08-06T14:56:04;21.50;99.90
5962;DHT22;3007;50.770;0.250;2023-08-06T14:58:31;21.60;99.90
5962;DHT22;3007;50.770;0.250;2023-08-06T15:00:58;21.60;99.90
5962;DHT22;3007;50.770;0.250;2023-08-06T15:03:24;21.60;99.90
5962;DHT22;3007;50.770;0.250;2023-08-06T15:05:53;21.50;99.90
5962;DHT22;3007;50.770;0.250;2023-08-06T15:08:20;21.50;99.90
5962;DHT22;3007;50.770;0.250;2023-08-06T15:10:50;21.50;99.90
5962;DHT22;3007;50.770;0.250;2023-08-06T15:13:19;21.50;99.90
5962;DHT22;3007;50.770;0.250;2023-08-06T15:15:46;21.40;99.90
5962;DHT22;3007;50.770;0.250;2023-08-06T15:18:13;21.40;99.90
5962;DHT22;3007;50.770;0.250;2023-08-06T15:20:40;21.40;99.90
5962;DHT22;3007;50.770;0.250;2023-08-06T15:23:08;21.40;99.90
5962;DHT22;3007;50.770;0.250;2023-08-06T15:25:34;21.40;99.90
5962;DHT22;3007;50.770;0.250;2023-08-06T15:28:01;21.50;99.90
5962;DHT22;3007;50.770;0.250;2023-08-06T15:30:29;21.40;99.90
5962;DHT22;3007;50.770;0.250;2023-08-06T15:32:56;21.30;99.90
5962;DHT22;3007;50.770;0.250;2023-08-06T15:35:23;21.30;99.90
5962;DHT22;3007;50.770;0.250;2023-08-06T15:37:50;21.30;99.90
5962;DHT22;3007;50.770;0.250;2023-08-06T15:40:17;21.20;99.90
5962;DHT22;3007;50.770;0.250;2023-08-06T15:42:44;21.00;99.90
5962;DHT22;3007;50.770;0.250;2023-08-06T15:45:10;20.70;99.90
5962;DHT22;3007;50.770;0.250;2023-08-06T15:47:39;20.50;99.90
5962;DHT22;3007;50.770;0.250;2023-08-06T15:50:07;20.30;99.90
5962;DHT22;3007;50.770;0.250;2023-08-06T15:52:34;20.10;99.90
5962;DHT22;3007;50.770;0.250;2023-08-06T15:55:02;20.00;99.90
5962;DHT22;3007;50.770;0.250;2023-08-06T15:57:31;19.90;99.90
5962;DHT22;3007;50.770;0.250;2023-08-06T15:59:57;19.90;99.90
5962;DHT22;3007;50.770;0.250;2023-08-06T16:02:24;19.90;99.90
5962;DHT22;3007;50.770;0.250;2023-08-06T16:04:54;19.90;99.90
5962;DHT22;3007;50.770;0.250;2023-08-06T16:07:21;19.90;99.90